Wednesday, May 24, 2017, 4:14 AM EDT

KSBY, Salisbury-wicomico Cty Reg

Location: Salisbury, MD, United States Lat: 38.333
Local Time: 4:14 AM EDT ( 8:14 GMT) Lon: -75.5
Time Zone: US/Eastern Elev: 52 ft

Show me the last for .
Show Decoded

2017-05-24 03:54 METAR KSBY 240754Z AUTO 36006KT 9SM OVC008 14/14 A2967 RMK AO2 RAB01E54 CIG
                 006V011 SLP050 P0002 T01390139 =
2017-05-24 02:54 METAR KSBY 240654Z AUTO 01006KT 10SM OVC008 14/14 A2969 RMK AO2 RAE37 CIG
                 005V012 SLP055 P0001 T01390139 =
2017-05-24 02:08 METAR KSBY 240608Z AUTO 05009KT 5SM -RA BR BKN006 OVC012 14/14 A2969 RMK AO2
                 P0001 T01390139 =
2017-05-24 01:54 METAR KSBY 240554Z AUTO 02008KT 4SM RA BR FEW005 BKN014 OVC022 14/14 A2969 RMK
                 AO2 SLP055 P0013 60032 T01390139 10139 20133 58004 =
2017-05-24 01:50 METAR KSBY 240550Z AUTO 03007KT 4SM RA BR SCT005 BKN014 OVC023 14/14 A2970 RMK
                 AO2 P0012 =
2017-05-24 01:28 METAR KSBY 240528Z AUTO 01008KT 3SM RA BR SCT007 BKN020 OVC025 14/14 A2969 RMK
                 AO2 P0009 T01390139 =
2017-05-24 01:22 METAR KSBY 240522Z AUTO 36008KT 2 1/2SM +RA BR BKN007 BKN011 OVC025 14/14 A2970
                 RMK AO2 CIG 005V010 P0007 T01390139 =
2017-05-24 00:54 METAR KSBY 240454Z AUTO 02007KT 7SM -RA OVC005 14/14 A2970 RMK AO2 SLP060 P0002
                 T01390139 401890133 =
2017-05-23 23:54 METAR KSBY 240354Z AUTO 07010KT 7SM -RA OVC005 14/14 A2970 RMK AO2 SLP059 P0003
                 T01390139 =
2017-05-23 23:04 METAR KSBY 240304Z AUTO 04008KT 6SM -RA BR BKN005 OVC110 13/13 A2973 RMK AO2
                 P0000 T01330133 =
2017-05-23 22:54 METAR KSBY 240254Z AUTO 04008KT 5SM -RA BR SCT005 BKN021 OVC110 13/13 A2973 RMK
                 AO2 SLP071 P0003 60014 T01330133 56027 =
2017-05-23 22:24 METAR KSBY 240224Z 05007KT 7SM -RA BKN005 BKN110 13/13 A2975 RMK AO2 P0000
                 T01330133 =
2017-05-23 22:01 METAR KSBY 240201Z 05009KT 8SM -RA SCT005 SCT027 BKN120 13/13 A2975 RMK AO2
                 P0000 T01330133 =
2017-05-23 21:54 METAR KSBY 240154Z 06007KT 8SM -RA BKN005 BKN110 13/13 A2976 RMK AO2 SLP080
                 P0003 T01330133 =
2017-05-23 21:19 METAR KSBY 240119Z 06008KT 6SM -RA BR FEW009 FEW050 BKN110 13/13 A2978 RMK AO2
                 P0002 T01330133 =
2017-05-23 20:54 METAR KSBY 240054Z 05009KT 6SM -RA BR FEW060 FEW085 BKN110 13/13 A2979 RMK AO2
                 SLP088 P0008 T01330133 =
2017-05-23 20:06 METAR KSBY 240006Z 07006KT 7SM RA SCT014 BKN070 OVC110 14/13 A2981 RMK AO2 P0002
                 T01390133 =
2017-05-23 19:54 METAR KSBY 232354Z 08004KT 6SM -RA BR BKN014 BKN025 OVC110 14/13 A2982 RMK AO2
                 SLP098 P0004 60004 T01440133 10178 20144 55007 =
2017-05-23 18:54 METAR KSBY 232254Z 07008KT 10SM -RA OVC013 15/13 A2980 RMK AO2 RAB38 SLP093
                 P0000 T01500128 =
2017-05-23 18:28 METAR KSBY 232228Z 08007KT 10SM OVC014 16/13 A2980 RMK AO2 T01560128 =
2017-05-23 17:54 METAR KSBY 232154Z 08009KT 10SM OVC015 16/13 A2981 RMK AO2 SLP096 T01610133 =
2017-05-23 16:54 METAR KSBY 232054Z 06009KT 10SM BKN017 OVC100 17/13 A2983 RMK AO2 SLP105
                 T01720133 55014 =
2017-05-23 15:54 METAR KSBY 231954Z 08007KT 10SM FEW075 OVC100 17/13 A2985 RMK AO2 SLP111
                 T01720133 =
2017-05-23 14:54 METAR KSBY 231854Z 09008KT 10SM OVC110 17/13 A2988 RMK AO2 SLP119 T01720133 =
2017-05-23 13:54 METAR KSBY 231754Z 08009KT 10SM OVC100 17/12 A2990 RMK AO2 RAE44 SLP127 P0000
                 60000 T01720122 10178 20161 58015 =
2017-05-23 12:54 METAR KSBY 231654Z 08011KT 10SM -RA SCT019 BKN036 OVC110 17/13 A2992 RMK AO2
                 SLP134 P0000 T01670128 =
2017-05-23 12:51 METAR KSBY 231651Z 08012KT 10SM -RA SCT019 BKN036 OVC110 17/13 A2993 RMK AO2
                 P0000 =
2017-05-23 12:30 METAR KSBY 231630Z 07011KT 10SM -RA BKN017 BKN042 OVC070 17/14 A2994 RMK AO2
                 P0000 T01720139 =
2017-05-23 11:54 METAR KSBY 231554Z 07008KT 4SM -RA BR OVC010 16/15 A2994 RMK AO2 RAB47 SLP141
                 P0000 T01610150 =
2017-05-23 10:54 METAR KSBY 231454Z 08010KT 4SM BR OVC010 17/15 A2994 RMK AO2 SLP141 T01720150
                 53000 =
2017-05-23 09:54 METAR KSBY 231354Z 07011KT 4SM BR OVC010 17/15 A2994 RMK AO2 SLP140 T01720150 =
2017-05-23 09:30 METAR KSBY 231330Z 06008KT 4SM BR OVC008 17/16 A2995 RMK AO2 T01720156 =
2017-05-23 08:54 METAR KSBY 231254Z 06008KT 5SM BR OVC014 17/16 A2994 RMK AO2 SLP140 T01720161 =
2017-05-23 08:40 METAR KSBY 231240Z 06009KT 5SM BR BKN013 OVC019 17/16 A2994 RMK AO2 T01720161 =
2017-05-23 08:28 METAR KSBY 231228Z 05008KT 5SM BR SCT011 OVC019 18/17 A2994 RMK AO2 T01780167 =
2017-05-23 08:14 METAR KSBY 231214Z 05008KT 4SM BR BKN010 OVC019 17/17 A2994 RMK AO2 T01720167 =
2017-05-23 07:54 METAR KSBY 231154Z 06009KT 4SM BR BKN008 OVC012 17/17 A2993 RMK AO2 SLP138 70043
                 T01720167 10183 20161 50005 =
2017-05-23 06:54 METAR KSBY 231054Z 04004KT 3SM BR OVC006 17/17 A2994 RMK AO2 CIG 005V010 SLP141
                 T01670167 =
2017-05-23 06:38 METAR KSBY 231038Z 03004KT 3SM BR OVC006 17/17 A2994 RMK AO2 T01670167 =
2017-05-23 06:16 METAR KSBY 231016Z 05003KT 2 1/2SM BR BKN008 16/16 A2994 RMK AO2 T01610161 =
2017-05-23 06:11 METAR KSBY 231011Z 04003KT 3SM BR FEW008 16/16 A2993 RMK AO2 T01610161 =
2017-05-23 06:07 METAR KSBY 231007Z 05003KT 2 1/2SM BR CLR 16/16 A2993 RMK AO2 T01610161 =
2017-05-23 05:54 METAR KSBY 230954Z 05003KT 4SM BR CLR 17/16 A2993 RMK AO2 SLP136 T01670161 =
2017-05-23 04:54 METAR KSBY 230854Z AUTO 36003KT 5SM BR SCT008 17/17 A2992 RMK AO2 SLP133
                 T01670167 50000 =
2017-05-23 04:29 METAR KSBY 230829Z AUTO 36003KT 6SM BR OVC009 17/17 A2992 RMK AO2 CIG 006V011
                 T01720167 =

Support USWX by starting your Amazon purchase here.